Time;durP1;ratioP1;P1;durP2;ratioP2;P2;SDS_P1;SDS_P2;PMS_P1;PMS_P2;Temp;Humidity;BMP_temperature;BMP_pressure;BME280_temperature;BME280_humidity;BME280_pressure;Samples;Min_cycle;Max_cycle;Signal;HPM_P1;HPM_P2
2022/03/15 00:08:37;;;;;;;65.57;26.63;;;;;;;4.04;58.63;101684.11;713382;1177;114872;-73
2022/03/15 00:23:40;;;;;;;77.77;29.40;;;;;;;3.74;58.52;101674.00;713782;1175;115768;-71
2022/03/15 00:38:42;;;;;;;60.20;25.07;;;;;;;3.72;59.69;101661.08;713553;1176;115654;-73
2022/03/15 00:53:44;;;;;;;56.08;21.90;;;;;;;3.78;59.07;101649.61;713423;1177;115551;-72
2022/03/15 01:08:47;;;;;;;59.73;22.53;;;;;;;3.49;59.34;101644.59;713587;1177;114298;-72
2022/03/15 01:23:49;;;;;;;56.45;22.50;;;;;;;3.69;59.33;101624.84;713341;1175;115507;-74
2022/03/15 01:38:52;;;;;;;54.67;23.47;;;;;;;3.39;60.04;101638.06;712917;1177;115877;-73
2022/03/15 01:53:54;;;;;;;45.07;20.23;;;;;;;3.46;60.65;101617.93;712891;1175;115499;-73
2022/03/15 02:08:57;;;;;;;55.83;25.25;;;;;;;3.20;61.69;101650.00;712938;1175;115934;-72
2022/03/15 02:23:59;;;;;;;41.97;19.53;;;;;;;3.12;61.26;101632.95;713076;1176;114813;-73
2022/03/15 02:39:01;;;;;;;43.87;20.90;;;;;;;3.05;61.60;101634.08;712722;1177;115825;-73
2022/03/15 02:54:08;;;;;;;80.50;29.00;;;;;;;2.73;62.04;101650.72;713006;1175;115679;-73
2022/03/15 03:09:11;;;;;;;60.87;26.27;;;;;;;2.47;62.31;101639.48;712882;1177;115817;-73
2022/03/15 03:24:19;;;;;;;53.73;24.50;;;;;;;2.40;62.16;101650.92;712978;1177;114977;-73
2022/03/15 03:39:20;;;;;;;;;;;;;;;2.29;62.76;101633.97;713178;1175;114360;-73
2022/03/15 03:54:23;;;;;;;113.58;45.55;;;;;;;2.31;63.18;101639.97;713104;1177;101561;-72
2022/03/15 04:09:25;;;;;;;81.63;32.98;;;;;;;2.35;63.16;101627.77;713018;1175;115711;-72
2022/03/15 04:24:28;;;;;;;54.00;23.65;;;;;;;2.13;63.10;101623.26;712981;1175;114218;-73
2022/03/15 04:39:30;;;;;;;61.20;27.15;;;;;;;2.14;63.35;101630.14;712865;1177;115511;-73
2022/03/15 04:54:32;;;;;;;71.00;35.38;;;;;;;2.12;63.26;101633.67;713396;1176;115492;-75
2022/03/15 05:11:05;;;;;;;119.93;46.58;;;;;;;2.01;63.31;101639.19;713101;1177;115774;-74
2022/03/15 05:24:58;;;;;;;239.88;56.15;;;;;;;1.88;63.44;101624.92;713296;1176;115445;-73
2022/03/15 05:40:00;;;;;;;231.50;63.33;;;;;;;2.03;63.16;101619.25;713081;1175;115882;-73
2022/03/15 05:55:03;;;;;;;96.47;40.17;;;;;;;2.42;63.39;101647.39;713228;1175;115780;-80
2022/03/15 06:10:08;;;;;;;92.85;34.68;;;;;;;2.74;63.43;101632.52;713069;1175;115412;-80
2022/03/15 06:25:11;;;;;;;356.67;99.93;;;;;;;2.97;63.78;101646.47;713688;1175;115092;-77
2022/03/15 06:40:24;;;;;;;179.40;66.70;;;;;;;3.26;63.14;101648.03;713400;1175;114513;-81
2022/03/15 06:55:27;;;;;;;99.85;42.98;;;;;;;3.64;63.75;101652.71;713437;1177;115417;-73
2022/03/15 07:10:29;;;;;;;134.28;60.98;;;;;;;3.80;63.26;101678.94;713448;1175;115739;-72
2022/03/15 07:25:31;;;;;;;86.80;42.63;;;;;;;4.46;63.84;101691.13;713861;1175;114968;-73
2022/03/15 07:40:34;;;;;;;78.00;33.58;;;;;;;5.03;64.24;101678.41;713924;1177;115727;-78
2022/03/15 07:55:36;;;;;;;63.47;29.70;;;;;;;5.51;63.94;101684.14;713601;1175;114236;-77
2022/03/15 08:10:38;;;;;;;55.43;28.10;;;;;;;7.44;63.69;101681.84;713582;1175;114883;-79
2022/03/15 08:25:40;;;;;;;64.83;30.30;;;;;;;8.19;62.91;101683.94;713569;1177;115657;-78
2022/03/15 08:40:42;;;;;;;56.73;29.38;;;;;;;8.48;62.57;101703.25;713411;1175;116040;-79
2022/03/15 08:55:45;;;;;;;50.75;26.33;;;;;;;8.97;61.75;101694.33;713668;1176;115953;-76
2022/03/15 09:10:48;;;;;;;117.10;44.38;;;;;;;10.30;61.20;101688.81;713499;1175;114313;-79
2022/03/15 09:25:51;;;;;;;43.30;23.63;;;;;;;12.12;58.73;101678.27;713488;1169;115473;-80
2022/03/15 09:41:06;;;;;;;40.07;22.07;;;;;;;13.29;57.45;101666.87;713676;1175;115782;-79
2022/03/15 09:56:09;;;;;;;38.53;21.63;;;;;;;14.04;54.20;101645.22;713780;1177;115708;-80
2022/03/15 10:11:12;;;;;;;38.37;22.40;;;;;;;15.00;52.85;101622.30;713588;1177;114784;-78
2022/03/15 10:26:41;;;;;;;30.10;18.73;;;;;;;15.90;51.10;101623.31;713664;1176;115026;-78
2022/03/15 10:41:48;;;;;;;34.98;21.50;;;;;;;16.22;49.00;101621.34;713360;1177;116030;-75
2022/03/15 10:56:53;;;;;;;32.73;18.33;;;;;;;16.53;48.17;101607.95;713806;1177;115530;-74
2022/03/15 11:12:00;;;;;;;42.10;25.70;;;;;;;17.05;47.89;101605.75;714228;1177;114715;-81
2022/03/15 11:27:06;;;;;;;48.00;28.70;;;;;;;17.25;48.63;101587.11;714620;1177;115923;-81
2022/03/15 11:42:12;;;;;;;57.23;22.78;;;;;;;17.43;48.15;101574.72;713874;1175;115346;-80
2022/03/15 11:57:25;;;;;;;31.77;18.17;;;;;;;17.16;48.93;101558.83;713498;1174;115711;-77
2022/03/15 12:12:33;;;;;;;39.43;20.05;;;;;;;18.20;48.82;101536.27;713965;1174;115455;-75
2022/03/15 12:27:45;;;;;;;33.57;20.07;;;;;;;17.71;49.14;101521.60;714349;1177;115488;-77
2022/03/15 12:42:53;;;;;;;43.15;21.98;;;;;;;16.48;49.83;101518.31;722947;1176;115893;-73
2022/03/15 12:58:05;;;;;;;40.47;22.47;;;;;;;16.23;51.07;101502.09;713576;1174;115498;-72
2022/03/15 13:13:29;;;;;;;26.40;15.70;;;;;;;15.37;51.20;101494.02;713610;1174;116115;-74
2022/03/15 13:28:40;;;;;;;28.18;16.30;;;;;;;14.46;52.62;101485.09;713274;1177;115931;-74
2022/03/15 13:43:43;;;;;;;36.88;21.25;;;;;;;14.09;54.32;101488.20;713806;1177;115675;-74
2022/03/15 13:58:59;;;;;;;89.70;38.78;;;;;;;14.08;55.83;101496.25;713936;1175;116081;-75
2022/03/15 14:14:07;;;;;;;31.65;16.85;;;;;;;13.68;55.97;101497.75;713541;1176;114729;-73
2022/03/15 14:29:17;;;;;;;38.10;20.90;;;;;;;13.60;55.16;101490.47;713838;1177;115232;-74
2022/03/15 14:44:29;;;;;;;30.88;16.75;;;;;;;13.71;55.88;101476.42;713624;1174;116270;-74
2022/03/15 14:59:34;;;;;;;29.13;15.50;;;;;;;13.63;55.71;101461.23;713227;1177;115549;-74
2022/03/15 15:14:37;;;;;;;76.77;32.60;;;;;;;13.68;56.03;101455.56;713407;1175;115599;-73
2022/03/15 15:29:41;;;;;;;71.00;34.33;;;;;;;13.81;57.33;101448.30;713628;1174;115719;-74
2022/03/15 15:44:48;;;;;;;64.30;31.43;;;;;;;13.65;57.79;101447.92;713788;1176;114691;-74
2022/03/15 15:59:52;;;;;;;207.00;80.10;;;;;;;13.66;58.35;101441.69;713598;1175;115718;-74
2022/03/15 16:14:55;;;;;;;166.35;65.93;;;;;;;13.54;58.63;101437.41;714014;1175;115025;-74
2022/03/15 16:29:59;;;;;;;200.20;64.70;;;;;;;13.29;58.42;101423.60;713946;1177;116133;-74
2022/03/15 16:45:03;;;;;;;136.20;48.05;;;;;;;12.79;59.17;101419.64;713722;1177;116589;-74
2022/03/15 17:00:06;;;;;;;345.90;104.90;;;;;;;12.14;59.72;101416.78;714274;1177;115560;-85
2022/03/15 17:15:10;;;;;;;451.98;162.60;;;;;;;11.49;60.80;101411.10;717220;1176;116425;-85
2022/03/15 17:30:16;;;;;;;342.10;108.80;;;;;;;11.23;61.97;101402.52;713703;1176;116198;-72
2022/03/15 17:45:20;;;;;;;423.50;136.87;;;;;;;10.94;61.99;101399.35;713624;1174;116002;-72
2022/03/15 18:00:24;;;;;;;300.98;111.40;;;;;;;10.79;63.29;101393.42;713447;1177;116120;-74
2022/03/15 18:15:34;;;;;;;178.07;71.00;;;;;;;10.43;64.15;101380.17;713200;1175;115788;-73
2022/03/15 18:30:40;;;;;;;102.83;48.08;;;;;;;10.08;63.90;101375.58;713504;1174;116033;-72
2022/03/15 18:45:47;;;;;;;207.57;77.63;;;;;;;9.51;65.09;101370.70;713551;1174;115955;-72
2022/03/15 19:01:01;;;;;;;168.68;64.45;;;;;;;9.05;64.83;101369.30;713991;1177;115101;-73
2022/03/15 19:16:12;;;;;;;245.30;74.13;;;;;;;8.63;65.69;101361.45;713976;1174;115772;-75
2022/03/15 19:31:17;;;;;;;193.85;63.20;;;;;;;8.24;67.10;101355.13;713909;1174;115081;-71
2022/03/15 19:46:21;;;;;;;276.23;81.17;;;;;;;7.82;67.07;101337.55;713911;1176;115990;-73
2022/03/15 20:01:25;;;;;;;294.20;96.30;;;;;;;7.30;67.13;101330.19;713875;1176;114991;-71
2022/03/15 20:16:28;;;;;;;262.23;86.78;;;;;;;7.08;68.02;101341.83;713939;1176;116036;-72
2022/03/15 20:31:34;;;;;;;226.63;75.45;;;;;;;6.69;68.62;101330.11;714224;1177;115345;-71
2022/03/15 20:46:40;;;;;;;128.88;47.33;;;;;;;6.39;68.45;101322.16;713700;1174;115046;-71
2022/03/15 21:01:46;;;;;;;163.65;58.65;;;;;;;6.21;68.70;101324.84;713530;1174;114605;-71
2022/03/15 21:16:50;;;;;;;105.23;40.93;;;;;;;5.99;68.95;101323.38;714205;1174;115260;-71
2022/03/15 21:31:52;;;;;;;152.80;55.20;;;;;;;6.07;69.28;101317.77;713931;1176;115831;-70
2022/03/15 21:46:55;;;;;;;222.05;77.68;;;;;;;6.13;69.57;101316.59;713926;1175;115589;-70
2022/03/15 22:01:59;;;;;;;350.17;117.97;;;;;;;6.01;69.01;101323.29;714131;1175;115403;-70
2022/03/15 22:17:01;;;;;;;372.95;118.60;;;;;;;5.85;69.03;101297.17;714270;1174;114670;-72
2022/03/15 23:17:48;;;;;;;306.37;110.10;;;;;;;5.90;70.96;101289.11;714306;1174;116084;-71
2022/03/15 23:32:52;;;;;;;330.87;117.80;;;;;;;5.97;70.49;101280.89;713977;1176;114713;-70
2022/03/15 23:47:55;;;;;;;272.70;103.45;;;;;;;6.04;70.97;101273.63;713427;1177;116184;-71
